Time;durP1;ratioP1;P1;durP2;ratioP2;P2;SDS_P1;SDS_P2;PMS_P1;PMS_P2;Temp;Humidity;BMP_temperature;BMP_pressure;BME280_temperature;BME280_humidity;BME280_pressure;Samples;Min_cycle;Max_cycle;Signal;HPM_P1;HPM_P2
2022/07/14 00:00:40;;;;;;;9.67;2.10;;;18.80;1.00;;;;;;6186883;23;20639;-85
2022/07/14 00:03:07;;;;;;;8.07;2.13;;;18.90;1.00;;;;;;6161561;23;20169;-86
2022/07/14 00:05:35;;;;;;;7.67;2.43;;;18.80;1.00;;;;;;6161608;23;20176;-86
2022/07/14 00:08:03;;;;;;;8.97;2.00;;;18.60;1.00;;;;;;6160608;23;20272;-83
2022/07/14 00:10:30;;;;;;;8.70;1.67;;;18.60;1.00;;;;;;6157982;23;20188;-86
2022/07/14 00:12:57;;;;;;;9.00;2.03;;;18.40;99.90;;;;;;6155970;23;20593;-85
2022/07/14 00:15:24;;;;;;;8.47;1.70;;;18.60;99.90;;;;;;6156009;23;20157;-87
2022/07/14 00:17:51;;;;;;;6.03;1.90;;;18.80;1.00;;;;;;6155619;23;20227;-86
2022/07/14 00:20:19;;;;;;;6.60;1.80;;;18.90;1.00;;;;;;6178200;23;20177;-86
2022/07/14 00:22:45;;;;;;;6.63;1.90;;;18.90;1.00;;;;;;6178853;23;20157;-85
2022/07/14 00:25:12;;;;;;;8.53;2.57;;;18.90;1.00;;;;;;6153184;23;20196;-86
2022/07/14 00:27:39;;;;;;;9.90;2.13;;;19.00;1.00;;;;;;6154829;23;20211;-86
2022/07/14 00:30:07;;;;;;;10.97;2.60;;;18.90;1.00;;;;;;6154589;23;20228;-83
2022/07/14 00:32:35;;;;;;;8.70;2.20;;;18.70;1.00;;;;;;6155841;23;20172;-85
2022/07/14 00:35:03;;;;;;;5.13;2.13;;;18.70;1.00;;;;;;6153736;23;20172;-84
2022/07/14 00:37:30;;;;;;;6.67;2.10;;;18.70;1.00;;;;;;6154428;23;20192;-85
2022/07/14 00:39:57;;;;;;;12.37;2.00;;;18.50;99.90;;;;;;6177287;23;20228;-82
2022/07/14 00:42:44;;;;;;;9.03;2.43;;;18.50;1.00;;;;;;6153806;23;20161;-85
2022/07/14 00:45:14;;;;;;;8.77;2.83;;;18.40;99.90;;;;;;6154297;23;20180;-86
2022/07/14 00:47:42;;;;;;;8.20;2.57;;;18.40;1.00;;;;;;6180411;23;20208;-85
2022/07/14 00:50:11;;;;;;;9.47;2.37;;;18.30;1.00;;;;;;6153549;23;20181;-86
2022/07/14 00:52:41;;;;;;;8.07;2.10;;;18.40;99.90;;;;;;6155204;23;20205;-84
2022/07/14 00:55:09;;;;;;;5.10;1.90;;;18.30;1.00;;;;;;6154341;23;20157;-85
2022/07/14 00:57:37;;;;;;;10.43;2.20;;;18.60;1.00;;;;;;6155866;23;20165;-85
2022/07/14 01:00:09;;;;;;;7.00;2.73;;;18.50;1.00;;;;;;6153622;23;20211;-85
2022/07/14 01:02:36;;;;;;;7.20;2.53;;;18.60;99.90;;;;;;6131574;23;20179;-85
2022/07/14 01:05:05;;;;;;;5.20;2.10;;;18.50;99.90;;;;;;6155479;23;20204;-85
2022/07/14 01:07:32;;;;;;;5.97;2.60;;;18.40;99.90;;;;;;6131804;23;20179;-82
2022/07/14 01:09:59;;;;;;;5.30;2.23;;;18.40;99.90;;;;;;6156836;23;20212;-85
2022/07/14 01:12:26;;;;;;;9.23;2.20;;;18.40;99.90;;;;;;6132891;23;20157;-84
2022/07/14 01:14:52;;;;;;;8.00;1.90;;;18.60;1.00;;;;;;6132085;23;20210;-85
2022/07/14 01:17:19;;;;;;;9.30;2.93;;;18.50;1.00;;;;;;6132025;23;20163;-84
2022/07/14 01:19:49;;;;;;;6.53;2.37;;;18.40;99.90;;;;;;6130862;23;20357;-85
2022/07/14 01:22:16;;;;;;;11.23;2.43;;;18.30;1.00;;;;;;6131639;23;20166;-85
2022/07/14 01:24:43;;;;;;;8.27;2.27;;;18.10;99.90;;;;;;6132043;23;20182;-87
2022/07/14 01:27:11;;;;;;;8.03;2.13;;;17.90;99.90;;;;;;6132634;23;20168;-86
2022/07/14 01:29:38;;;;;;;7.83;1.93;;;18.00;1.00;;;;;;6132868;23;20230;-85
2022/07/14 01:32:05;;;;;;;8.00;2.07;;;18.00;99.90;;;;;;6133645;23;20164;-85
2022/07/14 01:34:32;;;;;;;10.23;2.40;;;18.10;99.90;;;;;;6159160;23;20160;-86
2022/07/14 01:36:59;;;;;;;16.00;2.30;;;18.10;99.90;;;;;;6135092;23;20526;-85
2022/07/14 01:39:26;;;;;;;7.77;1.80;;;18.20;99.90;;;;;;6156250;23;20359;-85
2022/07/14 01:41:53;;;;;;;8.90;2.93;;;18.40;99.90;;;;;;6129606;23;20677;-85
2022/07/14 01:44:20;;;;;;;7.23;2.23;;;18.50;1.00;;;;;;6132431;23;20168;-86
2022/07/14 01:46:47;;;;;;;6.30;2.03;;;18.30;1.00;;;;;;6130543;23;20168;-85
2022/07/14 01:49:15;;;;;;;6.13;1.87;;;18.10;99.90;;;;;;6156019;23;20203;-85
2022/07/14 01:51:42;;;;;;;6.83;2.33;;;17.90;99.90;;;;;;6157633;23;20211;-85
2022/07/14 01:54:09;;;;;;;7.77;1.77;;;17.80;1.00;;;;;;6161359;23;20167;-83
2022/07/14 01:56:42;;;;;;;10.07;2.70;;;18.00;1.00;;;;;;6160372;23;20167;-84
2022/07/14 01:59:09;;;;;;;8.07;2.53;;;17.90;1.00;;;;;;6186154;23;20506;-84
2022/07/14 02:01:40;;;;;;;7.37;1.90;;;18.00;99.90;;;;;;6160192;23;20197;-84
2022/07/14 02:04:17;;;;;;;10.53;2.00;;;18.20;1.00;;;;;;6211841;23;20184;-84
2022/07/14 02:06:47;;;;;;;8.97;2.00;;;18.10;1.00;;;;;;6184337;23;20499;-84
2022/07/14 02:09:14;;;;;;;6.67;2.20;;;18.10;99.90;;;;;;6184928;23;20211;-84
2022/07/14 02:14:27;;;;;;;6.40;2.03;;;18.00;15.00;;;;;;6190987;23;20692;-85
2022/07/14 02:16:54;;;;;;;7.73;2.20;;;17.80;1.00;;;;;;6159901;23;20678;-83
2022/07/14 02:19:23;;;;;;;8.83;2.00;;;17.80;1.00;;;;;;6137095;23;20178;-83
2022/07/14 02:21:52;;;;;;;6.27;2.67;;;18.00;1.00;;;;;;6158509;23;20164;-85
2022/07/14 02:24:20;;;;;;;7.03;2.37;;;18.10;1.00;;;;;;6137417;23;20208;-84
2022/07/14 02:26:50;;;;;;;8.93;2.40;;;18.00;1.00;;;;;;6161415;23;20165;-84
2022/07/14 02:29:18;;;;;;;4.53;2.07;;;18.00;99.90;;;;;;6186311;23;20496;-85
2022/07/14 02:31:46;;;;;;;9.20;2.13;;;18.10;1.00;;;;;;6159302;23;20628;-85
2022/07/14 02:34:13;;;;;;;7.80;2.23;;;18.10;1.00;;;;;;6184456;23;20592;-85
2022/07/14 02:36:41;;;;;;;5.70;2.20;;;18.00;1.00;;;;;;6183170;23;20160;-84
2022/07/14 02:39:09;;;;;;;6.17;1.83;;;17.90;1.00;;;;;;6184040;23;20152;-85
2022/07/14 02:41:36;;;;;;;8.20;2.10;;;17.90;99.90;;;;;;6181544;23;20262;-83
2022/07/14 02:44:03;;;;;;;10.70;2.67;;;17.80;1.00;;;;;;6159740;23;20601;-85
2022/07/14 02:46:30;;;;;;;10.10;3.53;;;17.70;99.90;;;;;;6161791;23;20493;-84
2022/07/14 02:48:57;;;;;;;5.33;2.03;;;17.70;1.00;;;;;;6160872;23;20441;-85
2022/07/14 02:51:24;;;;;;;5.67;1.70;;;17.90;1.00;;;;;;6133314;23;20187;-85
2022/07/14 02:53:50;;;;;;;7.80;2.60;;;17.80;1.00;;;;;;6159512;23;20210;-85
2022/07/14 02:56:17;;;;;;;12.20;2.70;;;17.90;1.00;;;;;;6159370;23;20168;-85
2022/07/14 02:58:45;;;;;;;9.13;2.60;;;17.90;99.90;;;;;;6134391;23;20480;-83
2022/07/14 03:01:11;;;;;;;9.60;2.80;;;17.70;1.00;;;;;;6157788;23;20280;-85
2022/07/14 03:03:39;;;;;;;9.30;2.30;;;17.80;1.00;;;;;;6133671;23;20328;-85
2022/07/14 03:06:15;;;;;;;5.40;2.07;;;17.80;1.00;;;;;;6134383;23;20655;-85
2022/07/14 03:08:42;;;;;;;10.50;2.33;;;17.80;1.00;;;;;;6183252;23;20596;-86
2022/07/14 03:11:10;;;;;;;6.97;2.30;;;17.80;1.00;;;;;;6181427;23;20351;-85
2022/07/14 03:13:37;;;;;;;10.73;2.50;;;17.80;99.90;;;;;;6209274;23;20211;-85
2022/07/14 03:16:09;;;;;;;11.50;2.87;;;17.60;1.00;;;;;;6159776;23;20210;-86
2022/07/14 03:18:37;;;;;;;9.40;2.40;;;17.60;1.00;;;;;;6158259;23;20164;-84
2022/07/14 03:21:06;;;;;;;7.83;2.60;;;17.60;1.00;;;;;;6157611;23;20678;-84
2022/07/14 03:23:34;;;;;;;9.60;2.30;;;17.60;99.90;;;;;;6181082;23;20549;-84
2022/07/14 03:26:01;;;;;;;14.63;2.77;;;17.60;1.00;;;;;;6159279;23;20680;-84
2022/07/14 03:28:29;;;;;;;10.67;2.40;;;17.50;1.00;;;;;;6185037;23;20179;-84
2022/07/14 03:30:57;;;;;;;8.87;2.77;;;17.50;1.00;;;;;;6182306;23;20199;-83
2022/07/14 03:33:24;;;;;;;9.67;2.83;;;17.40;1.00;;;;;;6183434;23;20153;-83
2022/07/14 03:35:51;;;;;;;8.80;2.47;;;17.40;1.00;;;;;;6162554;23;20612;-82
2022/07/14 03:38:19;;;;;;;5.93;2.70;;;17.30;99.90;;;;;;6166245;23;20187;-84
2022/07/14 03:41:06;;;;;;;7.63;2.77;;;17.30;1.00;;;;;;6198229;23;20262;-83
2022/07/14 03:43:34;;;;;;;8.50;2.47;;;16.90;1.00;;;;;;6170187;23;20164;-85
2022/07/14 03:46:05;;;;;;;10.63;2.40;;;16.80;1.00;;;;;;6168440;23;20172;-84
2022/07/14 03:48:33;;;;;;;11.73;2.77;;;16.80;1.00;;;;;;6189745;23;20204;-84
2022/07/14 03:51:01;;;;;;;10.40;3.13;;;17.00;1.00;;;;;;6185073;23;20691;-82
2022/07/14 03:53:30;;;;;;;9.03;2.60;;;17.10;99.90;;;;;;6184580;23;20181;-82
2022/07/14 03:56:00;;;;;;;12.47;3.40;;;17.20;1.00;;;;;;6186994;23;20173;-83
2022/07/14 03:58:27;;;;;;;10.03;2.87;;;17.20;99.90;;;;;;6162566;23;20174;-85
2022/07/14 04:00:54;;;;;;;10.23;3.03;;;17.20;99.90;;;;;;6184663;23;20173;-83
2022/07/14 04:03:21;;;;;;;7.80;3.20;;;17.10;1.00;;;;;;6160524;23;20163;-84
2022/07/14 04:05:48;;;;;;;7.30;2.83;;;17.10;1.00;;;;;;6157861;23;20176;-83
2022/07/14 04:08:16;;;;;;;10.23;3.20;;;17.10;99.90;;;;;;6157657;23;20215;-81
2022/07/14 04:10:42;;;;;;;11.67;3.57;;;17.20;1.00;;;;;;6158094;23;20182;-84
2022/07/14 04:13:10;;;;;;;10.40;3.23;;;17.00;1.00;;;;;;6159833;23;20172;-84
2022/07/14 04:15:39;;;;;;;8.97;3.00;;;17.00;99.90;;;;;;6157572;23;20231;-83
2022/07/14 04:18:06;;;;;;;7.53;3.33;;;16.90;1.00;;;;;;6159195;23;20159;-83
2022/07/14 04:20:33;;;;;;;13.10;3.33;;;16.90;99.90;;;;;;6156462;23;20169;-83
2022/07/14 04:23:00;;;;;;;12.73;3.70;;;17.00;99.90;;;;;;6157516;23;20168;-82
2022/07/14 04:25:28;;;;;;;8.17;2.80;;;17.00;99.90;;;;;;6157612;23;20309;-84
2022/07/14 04:27:55;;;;;;;10.40;3.67;;;16.90;1.00;;;;;;6184027;23;20160;-85
2022/07/14 04:30:22;;;;;;;11.17;3.50;;;16.80;1.00;;;;;;6157350;23;20165;-84
2022/07/14 04:32:49;;;;;;;12.43;2.93;;;16.70;99.90;;;;;;6158795;23;20165;-84
2022/07/14 04:35:16;;;;;;;13.97;3.70;;;16.60;99.90;;;;;;6133316;23;20165;-84
2022/07/14 04:37:43;;;;;;;10.10;3.10;;;16.70;1.00;;;;;;6158204;23;20168;-85
2022/07/14 04:40:10;;;;;;;10.30;3.23;;;16.80;1.00;;;;;;6159826;23;20199;-84
2022/07/14 04:42:37;;;;;;;12.37;3.20;;;16.70;99.90;;;;;;6137844;23;20207;-83
2022/07/14 04:45:04;;;;;;;9.67;3.33;;;16.80;99.90;;;;;;6136841;23;20660;-82
2022/07/14 04:47:31;;;;;;;7.63;3.40;;;16.80;1.00;;;;;;6136383;23;20169;-85
2022/07/14 04:52:48;;;;;;;9.40;3.23;;;16.80;1.00;;;;;;6167831;23;20197;-84
2022/07/14 04:55:16;;;;;;;8.00;3.10;;;16.90;97.30;;;;;;6210929;23;20166;-83
2022/07/14 04:57:43;;;;;;;9.70;2.80;;;16.80;99.90;;;;;;6184313;23;20169;-81
2022/07/14 05:00:11;;;;;;;9.47;2.73;;;16.90;99.90;;;;;;6183684;23;20161;-83
2022/07/14 05:02:38;;;;;;;9.37;3.20;;;17.00;99.20;;;;;;6161624;23;20521;-83
2022/07/14 05:05:06;;;;;;;8.80;3.20;;;17.00;1.00;;;;;;6159114;23;20186;-83
2022/07/14 05:07:33;;;;;;;7.80;3.10;;;17.10;99.90;;;;;;6158566;23;20157;-82
2022/07/14 05:10:00;;;;;;;4.57;2.10;;;17.20;99.90;;;;;;6134162;23;20218;-83
2022/07/14 05:12:27;;;;;;;6.70;3.07;;;17.20;99.90;;;;;;6133723;23;20188;-84
2022/07/14 05:14:54;;;;;;;12.23;2.90;;;17.20;65.90;;;;;;6210658;23;20173;-83
2022/07/14 05:17:21;;;;;;;12.10;4.77;;;17.10;99.90;;;;;;6183056;23;20167;-84
2022/07/14 05:19:52;;;;;;;13.20;3.60;;;17.10;1.00;;;;;;6184299;23;20270;-83
2022/07/14 05:22:19;;;;;;;8.90;3.83;;;17.10;99.90;;;;;;6208659;23;20180;-82
2022/07/14 05:24:46;;;;;;;11.13;4.03;;;17.20;1.00;;;;;;6159215;23;20231;-84
2022/07/14 05:27:13;;;;;;;15.27;4.43;;;17.30;1.00;;;;;;6134889;23;20223;-84
2022/07/14 05:29:40;;;;;;;16.87;4.90;;;17.40;1.00;;;;;;6135034;23;20207;-83
2022/07/14 05:32:06;;;;;;;7.10;3.83;;;17.40;99.90;;;;;;6160071;23;20189;-83
2022/07/14 05:34:42;;;;;;;14.07;5.00;;;17.60;99.90;;;;;;6136092;23;20166;-81
2022/07/14 05:37:09;;;;;;;13.00;5.20;;;17.70;99.90;;;;;;6157222;23;20215;-81
2022/07/14 05:39:37;;;;;;;12.07;4.87;;;17.80;1.00;;;;;;6157830;23;20219;-82
2022/07/14 05:42:04;;;;;;;11.47;4.13;;;18.10;1.00;;;;;;6158585;23;20174;-81
2022/07/14 05:44:31;;;;;;;13.00;4.77;;;18.20;99.90;;;;;;6133843;23;20160;-80
2022/07/14 05:46:58;;;;;;;11.63;4.93;;;18.20;99.90;;;;;;6182136;23;20172;-86
2022/07/14 05:49:25;;;;;;;13.13;5.33;;;18.20;99.90;;;;;;6158635;23;20205;-85
2022/07/14 05:51:52;;;;;;;11.70;6.03;;;18.10;1.00;;;;;;6183159;23;20520;-86
2022/07/14 05:54:18;;;;;;;11.97;4.87;;;18.30;1.00;;;;;;6183489;23;20161;-86
2022/07/14 05:56:45;;;;;;;10.27;4.60;;;18.30;1.00;;;;;;6134757;23;20175;-85
2022/07/14 05:59:12;;;;;;;7.90;4.13;;;18.40;1.00;;;;;;6134719;23;20914;-86
2022/07/14 06:01:59;;;;;;;13.97;4.27;;;18.50;1.00;;;;;;6143764;23;20207;-86
2022/07/14 06:04:26;;;;;;;9.80;3.97;;;18.30;1.00;;;;;;6159706;23;20166;-83
2022/07/14 06:06:53;;;;;;;11.60;3.90;;;18.30;1.00;;;;;;6181688;23;20570;-81
2022/07/14 06:09:21;;;;;;;10.00;4.17;;;18.40;1.00;;;;;;6180686;23;20607;-82
2022/07/14 06:11:48;;;;;;;11.73;3.73;;;18.50;1.00;;;;;;6182284;23;20197;-82
2022/07/14 06:14:15;;;;;;;11.03;4.13;;;18.50;99.90;;;;;;6183257;23;20593;-82
2022/07/14 06:16:43;;;;;;;9.87;3.90;;;18.30;99.90;;;;;;6158732;23;20162;-83
2022/07/14 06:19:10;;;;;;;8.07;3.77;;;18.40;1.00;;;;;;6182950;23;20163;-83
2022/07/14 06:21:42;;;;;;;7.27;3.70;;;18.40;1.00;;;;;;6159175;23;20220;-84
2022/07/14 06:24:09;;;;;;;8.67;3.30;;;18.50;1.00;;;;;;6157216;23;20624;-83
2022/07/14 06:26:35;;;;;;;9.93;3.90;;;18.60;1.00;;;;;;6134118;23;20602;-84
2022/07/14 06:29:06;;;;;;;7.20;3.10;;;18.50;99.90;;;;;;6157074;23;20499;-83
2022/07/14 06:31:34;;;;;;;8.40;3.23;;;18.60;99.90;;;;;;6180425;23;20210;-83
2022/07/14 06:34:02;;;;;;;9.03;2.73;;;18.70;99.90;;;;;;6133677;23;20231;-84
2022/07/14 06:36:30;;;;;;;11.30;2.30;;;18.90;1.00;;;;;;6182531;23;20862;-84
2022/07/14 06:38:58;;;;;;;7.37;2.50;;;19.20;1.00;;;;;;6182652;23;20270;-84
2022/07/14 06:41:25;;;;;;;5.70;2.40;;;19.60;1.00;;;;;;6184046;23;20227;-84
2022/07/14 06:43:52;;;;;;;7.23;2.13;;;19.50;1.00;;;;;;6133134;23;20163;-83
2022/07/14 06:46:18;;;;;;;8.70;2.80;;;20.00;99.90;;;;;;6158864;23;20547;-83
2022/07/14 06:48:46;;;;;;;5.70;2.20;;;20.10;99.90;;;;;;6160658;23;20210;-84
2022/07/14 06:51:13;;;;;;;8.70;3.43;;;20.20;53.00;;;;;;6183867;23;20275;-82
2022/07/14 06:53:40;;;;;;;10.97;3.10;;;20.00;1.00;;;;;;6134490;23;20160;-84
2022/07/14 06:56:07;;;;;;;9.77;3.17;;;19.80;1.00;;;;;;6159921;23;20608;-83
2022/07/14 06:58:34;;;;;;;7.17;3.07;;;19.50;1.00;;;;;;6135861;23;20513;-83
2022/07/14 07:01:01;;;;;;;9.27;2.73;;;19.30;52.50;;;;;;6163330;23;20173;-82
2022/07/14 07:03:28;;;;;;;9.37;3.00;;;19.70;99.90;;;;;;6163285;23;20168;-84
2022/07/14 07:08:41;;;;;;;6.70;2.80;;;19.70;99.90;;;;;;6215855;23;20215;-84
2022/07/14 07:11:07;;;;;;;7.13;2.60;;;20.20;1.00;;;;;;6162696;23;20192;-84
2022/07/14 07:13:37;;;;;;;9.67;2.97;;;20.30;1.00;;;;;;6141835;23;20168;-83
2022/07/14 07:16:08;;;;;;;5.70;3.10;;;20.30;1.00;;;;;;6165537;23;20164;-84
2022/07/14 07:18:36;;;;;;;10.23;3.53;;;20.20;1.00;;;;;;6165605;23;20171;-84
2022/07/14 07:21:04;;;;;;;7.70;3.67;;;20.10;1.00;;;;;;6164324;23;20164;-86
2022/07/14 07:23:32;;;;;;;7.07;3.07;;;20.00;1.00;;;;;;6187567;23;20172;-83
2022/07/14 07:25:59;;;;;;;10.50;3.07;;;20.10;1.00;;;;;;6192416;23;20238;-85
2022/07/14 07:28:26;;;;;;;9.13;2.80;;;20.30;1.00;;;;;;6167582;23;20179;-86
2022/07/14 07:30:53;;;;;;;6.03;2.37;;;20.50;99.90;;;;;;6172414;23;20167;-84
2022/07/14 07:33:20;;;;;;;9.73;3.10;;;20.70;99.90;;;;;;6150123;23;20193;-85
2022/07/14 07:35:47;;;;;;;5.77;2.47;;;20.70;99.90;;;;;;6168216;23;20165;-85
2022/07/14 07:38:14;;;;;;;6.90;3.13;;;21.10;99.90;;;;;;6162270;23;20179;-84
2022/07/14 07:40:40;;;;;;;6.40;3.00;;;21.40;1.00;;;;;;6190148;23;20700;-82
2022/07/14 07:43:07;;;;;;;4.47;2.60;;;21.70;1.00;;;;;;6168066;23;20225;-83
2022/07/14 07:45:34;;;;;;;9.10;3.30;;;22.00;1.00;;;;;;6167542;23;20210;-84
2022/07/14 07:48:03;;;;;;;5.63;2.60;;;22.10;1.00;;;;;;6212843;23;20212;-84
2022/07/14 07:50:31;;;;;;;6.53;3.30;;;21.90;1.00;;;;;;6134624;23;20165;-85
2022/07/14 07:52:58;;;;;;;5.67;3.00;;;22.00;1.00;;;;;;6136590;23;20182;-85
2022/07/14 07:55:26;;;;;;;9.33;3.00;;;22.20;1.00;;;;;;6161850;23;20165;-86
2022/07/14 07:57:54;;;;;;;9.27;2.97;;;21.80;1.00;;;;;;6133212;23;20281;-83
2022/07/14 08:00:22;;;;;;;8.33;2.23;;;21.80;1.00;;;;;;6130168;23;20168;-86
2022/07/14 08:02:53;;;;;;;8.27;2.60;;;22.20;1.00;;;;;;6153951;23;20204;-85
2022/07/14 08:05:26;;;;;;;7.93;2.43;;;22.00;1.00;;;;;;6153743;23;20161;-86
2022/07/14 08:08:13;;;;;;;5.83;2.60;;;21.70;1.00;;;;;;6158062;23;20179;-84
2022/07/14 08:10:41;;;;;;;8.63;2.80;;;21.80;1.00;;;;;;6128624;23;20483;-85
2022/07/14 08:13:08;;;;;;;8.60;2.60;;;22.20;1.00;;;;;;6153487;23;20216;-85
2022/07/14 08:15:36;;;;;;;8.07;2.37;;;22.50;1.00;;;;;;6130526;23;20165;-86
2022/07/14 08:18:03;;;;;;;5.10;2.27;;;22.70;1.00;;;;;;6129839;23;20174;-83
2022/07/14 08:20:31;;;;;;;6.78;2.70;;;22.30;99.90;;;;;;6150809;23;20462;-80
2022/07/14 08:22:58;;;;;;;6.53;1.90;;;22.60;1.00;;;;;;6151237;23;20165;-81
2022/07/14 08:25:25;;;;;;;6.50;2.33;;;23.90;99.90;;;;;;6153136;23;20361;-81
2022/07/14 08:27:52;;;;;;;6.60;2.70;;;25.20;1.00;;;;;;6128235;23;20171;-81
2022/07/14 08:30:20;;;;;;;8.40;3.10;;;24.50;32.90;;;;;;6152917;23;20165;-81
2022/07/14 08:32:51;;;;;;;8.23;2.27;;;24.60;85.30;;;;;;6128126;23;20467;-80
2022/07/14 08:35:24;;;;;;;6.70;2.77;;;25.30;1.00;;;;;;6178420;23;20264;-81
2022/07/14 08:37:53;;;;;;;4.90;1.80;;;26.10;1.00;;;;;;6177150;23;20164;-80
2022/07/14 08:40:22;;;;;;;9.13;2.50;;;26.50;1.00;;;;;;6151884;23;20243;-81
2022/07/14 08:42:51;;;;;;;6.70;2.03;;;26.90;1.00;;;;;;6152224;23;20163;-80
2022/07/14 08:45:20;;;;;;;6.10;1.80;;;26.70;1.00;;;;;;6179014;23;20235;-80
2022/07/14 08:47:48;;;;;;;5.03;1.90;;;27.50;1.00;;;;;;6128717;23;20223;-81
2022/07/14 08:50:18;;;;;;;3.63;1.70;;;27.70;1.00;;;;;;6150636;23;20252;-81
2022/07/14 08:52:47;;;;;;;4.38;1.48;;;25.90;1.00;;;;;;6150235;23;20189;-79
2022/07/14 08:55:17;;;;;;;6.20;1.92;;;26.40;1.00;;;;;;6178123;23;20244;-81
2022/07/14 08:57:44;;;;;;;5.00;1.87;;;25.00;1.00;;;;;;6178565;23;20162;-80
2022/07/14 09:00:17;;;;;;;5.05;2.00;;;26.30;1.00;;;;;;6177764;23;20465;-80
2022/07/14 09:02:53;;;;;;;5.55;1.85;;;26.90;1.00;;;;;;6178166;23;20223;-79
2022/07/14 09:05:44;;;;;;;2.80;1.45;;;27.50;1.00;;;;;;6156083;23;20169;-83
2022/07/14 09:08:12;;;;;;;4.20;1.60;;;27.50;1.00;;;;;;6151746;23;20204;-79
2022/07/14 09:10:41;;;;;;;3.22;1.20;;;27.30;1.00;;;;;;6127408;23;20173;-80
2022/07/14 09:13:31;;;;;;;6.82;2.20;;;28.00;1.00;;;;;;6156050;23;20185;-81
2022/07/14 09:16:19;;;;;;;5.05;1.50;;;27.50;1.00;;;;;;6180281;23;20176;-79
2022/07/14 09:19:07;;;;;;;3.53;1.77;;;27.90;1.00;;;;;;6153432;23;21004;-80
2022/07/14 09:21:39;;;;;;;3.60;1.42;;;28.40;1.00;;;;;;6151750;23;20161;-81
2022/07/14 09:24:07;;;;;;;2.58;1.40;;;26.50;1.00;;;;;;6150533;23;20211;-81
2022/07/14 09:26:43;;;;;;;3.70;1.25;;;27.30;1.00;;;;;;6125141;23;20594;-81
2022/07/14 09:29:19;;;;;;;6.50;1.60;;;27.00;1.00;;;;;;6150853;23;20201;-81
2022/07/14 09:31:47;;;;;;;3.97;1.73;;;27.60;1.00;;;;;;6176290;23;20488;-81
2022/07/14 09:34:34;;;;;;;2.58;1.30;;;27.60;1.00;;;;;;6179914;23;20216;-83
2022/07/14 09:37:13;;;;;;;5.00;1.40;;;28.00;1.00;;;;;;6130722;23;20168;-83
2022/07/14 09:39:54;;;;;;;5.13;1.97;;;27.30;1.00;;;;;;6178266;23;20219;-82
2022/07/14 09:42:41;;;;;;;6.73;1.53;;;27.50;1.00;;;;;;6177506;23;20499;-83
2022/07/14 09:45:09;;;;;;;4.30;1.30;;;28.00;1.00;;;;;;6131373;23;20981;-84
2022/07/14 09:47:52;;;;;;;3.40;1.40;;;27.20;1.00;;;;;;6153833;23;20226;-83
2022/07/14 09:50:42;;;;;;;2.45;1.40;;;27.50;1.00;;;;;;6174180;23;20165;-81
2022/07/14 09:53:10;;;;;;;3.15;1.10;;;28.20;1.00;;;;;;6178959;23;20654;-82
2022/07/14 09:55:39;;;;;;;4.55;0.93;;;28.20;1.00;;;;;;6181244;23;20161;-82
2022/07/14 09:58:08;;;;;;;2.97;1.52;;;28.20;1.00;;;;;;6178091;23;20472;-82
2022/07/14 10:00:37;;;;;;;3.67;1.30;;;27.40;1.00;;;;;;6178495;23;20184;-82
2022/07/14 10:03:04;;;;;;;3.72;1.00;;;27.30;1.00;;;;;;6154097;23;20184;-81
2022/07/14 10:05:33;;;;;;;3.70;1.20;;;27.60;1.00;;;;;;6178968;23;20234;-80
2022/07/14 10:08:04;;;;;;;5.88;1.30;;;27.60;1.00;;;;;;6177204;23;20173;-80
2022/07/14 10:10:35;;;;;;;3.55;1.10;;;26.80;1.00;;;;;;6154928;23;20941;-82
2022/07/14 10:13:05;;;;;;;4.18;1.10;;;27.40;1.00;;;;;;6177220;23;20652;-81
2022/07/14 10:15:38;;;;;;;7.63;1.80;;;27.50;1.00;;;;;;6177718;23;20271;-82
2022/07/14 10:18:05;;;;;;;6.20;1.65;;;27.00;1.00;;;;;;6175712;23;20192;-81
2022/07/14 10:20:33;;;;;;;6.78;1.60;;;26.30;1.00;;;;;;6174939;23;20177;-80
2022/07/14 10:23:02;;;;;;;3.42;0.98;;;26.20;1.00;;;;;;6175833;23;20165;-80
2022/07/14 10:25:29;;;;;;;4.20;0.98;;;26.50;1.00;;;;;;6177087;23;20239;-82
2022/07/14 10:27:56;;;;;;;3.17;1.10;;;27.00;1.00;;;;;;6176464;23;20168;-80
2022/07/14 10:30:36;;;;;;;4.32;1.38;;;26.90;1.00;;;;;;6150875;23;20176;-80
2022/07/14 10:33:44;;;;;;;6.07;1.52;;;27.50;1.00;;;;;;6177967;23;20184;-82
2022/07/14 10:36:23;;;;;;;2.78;1.30;;;26.30;1.00;;;;;;6135722;23;20176;-81
2022/07/14 10:39:22;;;;;;;3.88;1.27;;;26.10;1.00;;;;;;6178479;23;20164;-81
2022/07/14 10:41:58;;;;;;;3.60;1.48;;;25.60;1.00;;;;;;6176528;23;20161;-80
2022/07/14 10:44:28;;;;;;;3.35;1.45;;;25.80;1.00;;;;;;6173205;23;20222;-81
2022/07/14 10:47:16;;;;;;;4.47;1.58;;;26.00;1.00;;;;;;6173791;23;20169;-83
2022/07/14 10:50:07;;;;;;;2.88;1.40;;;26.50;1.00;;;;;;6178166;23;21048;-80
2022/07/14 10:52:47;;;;;;;2.75;1.00;;;26.60;1.00;;;;;;6181950;23;20268;-81
2022/07/14 10:55:14;;;;;;;1.92;1.27;;;26.80;1.00;;;;;;6157140;23;20215;-82
2022/07/14 10:58:19;;;;;;;1.98;1.23;;;26.90;1.00;;;;;;6183847;23;20153;-82
2022/07/14 11:00:54;;;;;;;3.22;1.23;;;26.90;1.00;;;;;;6087514;23;20226;-80
2022/07/14 11:03:36;;;;;;;5.25;2.42;;;27.00;1.00;;;;;;6095906;23;20542;-81
2022/07/14 11:06:05;;;;;;;4.45;1.10;;;27.50;1.00;;;;;;6089393;23;20253;-81
2022/07/14 11:09:16;;;;;;;2.72;1.60;;;27.40;1.00;;;;;;6092946;23;20213;-80
2022/07/14 11:12:08;;;;;;;5.70;1.70;;;26.50;1.00;;;;;;6090990;23;20163;-81
2022/07/14 11:14:41;;;;;;;6.70;1.80;;;26.30;1.00;;;;;;6067828;23;20174;-80
2022/07/14 11:17:28;;;;;;;2.57;1.47;;;26.20;1.00;;;;;;6095070;23;20171;-81
2022/07/14 11:19:55;;;;;;;4.30;1.70;;;26.60;1.00;;;;;;6067708;23;20189;-81
2022/07/14 11:22:23;;;;;;;6.47;2.00;;;28.10;1.00;;;;;;6046568;23;20178;-80
2022/07/14 11:25:01;;;;;;;4.83;1.70;;;27.20;1.00;;;;;;6045094;23;20198;-81
2022/07/14 11:27:35;;;;;;;3.45;1.90;;;25.60;1.00;;;;;;6067121;23;20234;-81
2022/07/14 11:30:18;;;;;;;3.83;1.40;;;26.60;1.00;;;;;;6088322;23;20163;-80
2022/07/14 11:32:45;;;;;;;2.35;1.13;;;26.80;1.00;;;;;;6092002;23;20227;-79
2022/07/14 11:38:00;;;;;;;5.38;1.75;;;27.30;1.00;;;;;;6209590;23;20164;-80
2022/07/14 11:40:41;;;;;;;3.85;1.17;;;26.50;1.00;;;;;;6210155;23;20192;-81
2022/07/14 11:43:35;;;;;;;3.15;1.10;;;26.30;1.00;;;;;;6179185;23;20984;-79
2022/07/14 11:46:07;;;;;;;8.50;1.23;;;26.50;1.00;;;;;;6179499;23;20215;-80
2022/07/14 11:48:38;;;;;;;4.43;1.27;;;26.90;1.00;;;;;;6178268;23;20570;-80
2022/07/14 11:51:09;;;;;;;3.10;1.48;;;26.60;1.00;;;;;;6180812;23;20198;-80
2022/07/14 11:53:38;;;;;;;5.97;1.10;;;26.90;1.00;;;;;;6207058;23;20184;-80
2022/07/14 11:56:07;;;;;;;4.78;1.42;;;27.30;1.00;;;;;;6208801;23;20168;-80
2022/07/14 11:58:37;;;;;;;2.65;1.20;;;27.60;1.00;;;;;;6158488;23;20182;-80
2022/07/14 12:01:05;;;;;;;5.30;1.30;;;26.90;1.00;;;;;;6157520;23;20230;-79
2022/07/14 12:03:32;;;;;;;9.32;2.58;;;26.90;1.00;;;;;;6180983;23;20179;-81
2022/07/14 12:06:01;;;;;;;6.65;1.42;;;26.20;1.00;;;;;;6178014;23;20655;-82
2022/07/14 12:08:33;;;;;;;4.50;1.20;;;27.00;1.00;;;;;;6180796;23;20555;-80
2022/07/14 12:11:04;;;;;;;1.30;0.80;;;26.20;1.00;;;;;;6183117;23;20160;-81
2022/07/14 12:13:43;;;;;;;4.57;1.35;;;26.70;1.00;;;;;;6206264;23;20184;-80
2022/07/14 12:16:10;;;;;;;3.90;1.30;;;27.90;1.00;;;;;;6159426;23;20159;-80
2022/07/14 12:18:38;;;;;;;2.83;1.53;;;28.60;1.00;;;;;;6182892;23;20246;-81
2022/07/14 12:21:05;;;;;;;4.97;1.50;;;27.70;1.00;;;;;;6157621;23;20250;-81
2022/07/14 12:23:32;;;;;;;5.07;1.50;;;28.60;1.00;;;;;;6180994;23;20666;-80
2022/07/14 12:26:00;;;;;;;4.07;1.40;;;27.80;1.00;;;;;;6130726;23;20176;-80
2022/07/14 12:28:32;;;;;;;3.37;0.97;;;27.30;1.00;;;;;;6180700;23;20166;-81
2022/07/14 12:30:59;;;;;;;5.73;1.80;;;27.60;1.00;;;;;;6207790;23;20167;-80
2022/07/14 12:33:39;;;;;;;7.37;1.50;;;26.10;1.00;;;;;;6183128;23;20530;-81
2022/07/14 12:36:12;;;;;;;4.40;1.03;;;25.70;1.00;;;;;;6209547;23;20163;-81
2022/07/14 12:38:40;;;;;;;1.60;0.90;;;25.90;1.00;;;;;;6209126;23;20185;-81
2022/07/14 12:41:09;;;;;;;2.70;1.33;;;27.40;1.00;;;;;;6185202;23;20535;-81
2022/07/14 12:43:39;;;;;;;2.57;1.30;;;28.10;1.00;;;;;;6185600;23;20168;-81
2022/07/14 12:46:08;;;;;;;3.33;1.40;;;28.00;1.00;;;;;;6184356;23;20180;-81
2022/07/14 12:48:54;;;;;;;3.27;1.50;;;28.00;1.00;;;;;;6184997;23;20230;-81
2022/07/14 12:51:30;;;;;;;1.60;1.07;;;27.20;1.00;;;;;;6183486;23;20237;-81
2022/07/14 12:54:00;;;;;;;2.60;1.20;;;26.90;1.00;;;;;;6209638;23;20262;-80
2022/07/14 12:56:30;;;;;;;3.53;1.17;;;27.60;1.00;;;;;;6184677;23;20160;-80
2022/07/14 12:58:59;;;;;;;3.70;1.17;;;27.20;1.00;;;;;;6162003;23;20268;-80
2022/07/14 13:01:27;;;;;;;3.47;1.60;;;28.20;1.00;;;;;;6186603;23;20157;-80
2022/07/14 13:03:55;;;;;;;2.73;1.17;;;28.60;1.00;;;;;;6213433;23;20217;-82
2022/07/14 13:06:23;;;;;;;4.77;1.40;;;28.30;1.00;;;;;;6186437;23;20169;-80
2022/07/14 13:08:50;;;;;;;3.47;1.10;;;27.40;1.00;;;;;;6211896;23;20250;-80
2022/07/14 13:11:17;;;;;;;2.07;1.00;;;27.10;1.00;;;;;;6186935;23;20164;-81
2022/07/14 13:13:47;;;;;;;3.30;1.40;;;27.70;1.00;;;;;;6162203;23;20200;-82
2022/07/14 13:16:28;;;;;;;2.97;1.13;;;27.90;1.00;;;;;;6211271;23;20160;-81
2022/07/14 13:19:08;;;;;;;5.17;1.20;;;26.90;1.00;;;;;;6183848;23;20168;-80